sensor_id;sensor_type;location;lat;lon;timestamp;P1;durP1;ratioP1;P2;durP2;ratioP2
8708;SDS011;4391;48.678;9.280;2022-11-04T00:01:25;7.13;;;3.10;;
8708;SDS011;4391;48.678;9.280;2022-11-04T00:03:52;7.20;;;2.50;;
8708;SDS011;4391;48.678;9.280;2022-11-04T00:06:21;6.93;;;2.35;;
8708;SDS011;4391;48.678;9.280;2022-11-04T00:08:48;5.85;;;2.08;;
8708;SDS011;4391;48.678;9.280;2022-11-04T00:11:15;6.77;;;2.10;;
8708;SDS011;4391;48.678;9.280;2022-11-04T00:13:59;6.65;;;2.05;;
8708;SDS011;4391;48.678;9.280;2022-11-04T00:16:26;5.35;;;1.88;;
8708;SDS011;4391;48.678;9.280;2022-11-04T00:19:11;4.18;;;1.67;;
8708;SDS011;4391;48.678;9.280;2022-11-04T00:21:39;4.78;;;1.52;;
8708;SDS011;4391;48.678;9.280;2022-11-04T00:24:23;3.97;;;1.67;;
8708;SDS011;4391;48.678;9.280;2022-11-04T00:27:08;3.22;;;1.25;;
8708;SDS011;4391;48.678;9.280;2022-11-04T00:29:52;3.75;;;1.20;;
8708;SDS011;4391;48.678;9.280;2022-11-04T00:32:19;3.47;;;1.10;;
8708;SDS011;4391;48.678;9.280;2022-11-04T00:35:02;3.72;;;1.10;;
8708;SDS011;4391;48.678;9.280;2022-11-04T00:37:31;4.23;;;1.07;;
8708;SDS011;4391;48.678;9.280;2022-11-04T00:40:00;2.80;;;1.00;;
8708;SDS011;4391;48.678;9.280;2022-11-04T00:42:27;2.78;;;1.13;;
8708;SDS011;4391;48.678;9.280;2022-11-04T00:44:54;5.40;;;0.82;;
8708;SDS011;4391;48.678;9.280;2022-11-04T00:47:20;4.75;;;1.10;;
8708;SDS011;4391;48.678;9.280;2022-11-04T00:49:47;3.53;;;1.00;;
8708;SDS011;4391;48.678;9.280;2022-11-04T00:52:14;2.85;;;1.00;;
8708;SDS011;4391;48.678;9.280;2022-11-04T00:54:42;3.55;;;1.20;;
8708;SDS011;4391;48.678;9.280;2022-11-04T00:57:09;3.42;;;1.20;;
8708;SDS011;4391;48.678;9.280;2022-11-04T00:59:36;5.25;;;1.20;;
8708;SDS011;4391;48.678;9.280;2022-11-04T01:02:03;4.13;;;1.20;;
8708;SDS011;4391;48.678;9.280;2022-11-04T01:04:31;2.92;;;0.98;;
8708;SDS011;4391;48.678;9.280;2022-11-04T01:06:57;3.70;;;1.00;;
8708;SDS011;4391;48.678;9.280;2022-11-04T01:09:24;3.25;;;0.90;;
8708;SDS011;4391;48.678;9.280;2022-11-04T01:11:52;3.13;;;0.90;;
8708;SDS011;4391;48.678;9.280;2022-11-04T01:14:19;2.67;;;1.00;;
8708;SDS011;4391;48.678;9.280;2022-11-04T01:16:47;3.72;;;1.15;;
8708;SDS011;4391;48.678;9.280;2022-11-04T01:19:15;3.17;;;1.30;;
8708;SDS011;4391;48.678;9.280;2022-11-04T01:21:42;4.10;;;0.93;;
8708;SDS011;4391;48.678;9.280;2022-11-04T01:24:09;6.82;;;1.30;;
8708;SDS011;4391;48.678;9.280;2022-11-04T01:26:35;5.37;;;1.07;;
8708;SDS011;4391;48.678;9.280;2022-11-04T01:29:04;3.22;;;0.82;;
8708;SDS011;4391;48.678;9.280;2022-11-04T01:31:30;4.03;;;1.00;;
8708;SDS011;4391;48.678;9.280;2022-11-04T01:33:57;3.20;;;1.08;;
8708;SDS011;4391;48.678;9.280;2022-11-04T01:36:25;3.08;;;0.98;;
8708;SDS011;4391;48.678;9.280;2022-11-04T01:38:53;5.10;;;1.10;;
8708;SDS011;4391;48.678;9.280;2022-11-04T01:41:21;2.25;;;0.77;;
8708;SDS011;4391;48.678;9.280;2022-11-04T01:43:50;3.13;;;1.05;;
8708;SDS011;4391;48.678;9.280;2022-11-04T01:46:24;4.55;;;1.17;;
8708;SDS011;4391;48.678;9.280;2022-11-04T01:48:55;2.58;;;0.90;;
8708;SDS011;4391;48.678;9.280;2022-11-04T01:51:26;2.27;;;0.70;;
8708;SDS011;4391;48.678;9.280;2022-11-04T01:53:57;4.43;;;1.00;;
8708;SDS011;4391;48.678;9.280;2022-11-04T01:56:25;3.13;;;0.88;;
8708;SDS011;4391;48.678;9.280;2022-11-04T01:58:54;2.78;;;0.50;;
8708;SDS011;4391;48.678;9.280;2022-11-04T02:01:26;1.83;;;0.70;;
8708;SDS011;4391;48.678;9.280;2022-11-04T02:03:55;2.80;;;0.97;;
8708;SDS011;4391;48.678;9.280;2022-11-04T02:06:45;2.67;;;0.80;;
8708;SDS011;4391;48.678;9.280;2022-11-04T02:09:13;2.83;;;0.80;;
8708;SDS011;4391;48.678;9.280;2022-11-04T02:11:40;2.78;;;0.85;;
8708;SDS011;4391;48.678;9.280;2022-11-04T02:14:25;2.55;;;0.70;;
8708;SDS011;4391;48.678;9.280;2022-11-04T02:16:53;2.60;;;0.93;;
8708;SDS011;4391;48.678;9.280;2022-11-04T02:19:34;2.55;;;0.82;;
8708;SDS011;4391;48.678;9.280;2022-11-04T02:22:22;2.75;;;1.00;;
8708;SDS011;4391;48.678;9.280;2022-11-04T02:25:13;2.22;;;0.77;;
8708;SDS011;4391;48.678;9.280;2022-11-04T02:27:58;2.38;;;0.60;;
8708;SDS011;4391;48.678;9.280;2022-11-04T02:30:49;1.73;;;0.60;;
8708;SDS011;4391;48.678;9.280;2022-11-04T02:33:20;1.52;;;0.60;;
8708;SDS011;4391;48.678;9.280;2022-11-04T02:35:53;2.40;;;0.60;;
8708;SDS011;4391;48.678;9.280;2022-11-04T02:38:29;2.38;;;0.80;;
8708;SDS011;4391;48.678;9.280;2022-11-04T02:41:03;1.55;;;0.68;;
8708;SDS011;4391;48.678;9.280;2022-11-04T02:43:42;1.57;;;0.70;;
8708;SDS011;4391;48.678;9.280;2022-11-04T02:46:16;2.28;;;0.70;;
8708;SDS011;4391;48.678;9.280;2022-11-04T02:48:46;2.05;;;0.70;;
8708;SDS011;4391;48.678;9.280;2022-11-04T02:51:18;1.45;;;0.57;;
8708;SDS011;4391;48.678;9.280;2022-11-04T02:53:51;2.72;;;0.60;;
8708;SDS011;4391;48.678;9.280;2022-11-04T02:56:25;2.53;;;0.57;;
8708;SDS011;4391;48.678;9.280;2022-11-04T02:58:55;2.53;;;0.70;;
8708;SDS011;4391;48.678;9.280;2022-11-04T03:01:26;1.77;;;0.70;;
8708;SDS011;4391;48.678;9.280;2022-11-04T03:03:59;3.63;;;0.73;;
8708;SDS011;4391;48.678;9.280;2022-11-04T03:06:31;2.83;;;0.60;;
8708;SDS011;4391;48.678;9.280;2022-11-04T03:09:00;1.07;;;0.40;;
8708;SDS011;4391;48.678;9.280;2022-11-04T03:11:28;1.25;;;0.47;;
8708;SDS011;4391;48.678;9.280;2022-11-04T03:13:57;2.63;;;0.60;;
8708;SDS011;4391;48.678;9.280;2022-11-04T03:16:29;1.90;;;0.45;;
8708;SDS011;4391;48.678;9.280;2022-11-04T03:19:00;2.92;;;0.65;;
8708;SDS011;4391;48.678;9.280;2022-11-04T03:21:32;1.90;;;0.60;;
8708;SDS011;4391;48.678;9.280;2022-11-04T03:24:02;2.03;;;0.70;;
8708;SDS011;4391;48.678;9.280;2022-11-04T03:26:31;2.55;;;0.82;;
8708;SDS011;4391;48.678;9.280;2022-11-04T03:29:08;2.08;;;0.70;;
8708;SDS011;4391;48.678;9.280;2022-11-04T03:31:46;2.17;;;0.70;;
8708;SDS011;4391;48.678;9.280;2022-11-04T03:34:16;1.90;;;0.50;;
8708;SDS011;4391;48.678;9.280;2022-11-04T03:36:44;1.60;;;0.60;;
8708;SDS011;4391;48.678;9.280;2022-11-04T03:39:10;2.05;;;0.60;;
8708;SDS011;4391;48.678;9.280;2022-11-04T03:41:39;3.92;;;0.50;;
8708;SDS011;4391;48.678;9.280;2022-11-04T03:44:09;3.40;;;0.52;;
8708;SDS011;4391;48.678;9.280;2022-11-04T03:46:36;1.33;;;0.47;;
8708;SDS011;4391;48.678;9.280;2022-11-04T03:49:06;2.63;;;0.68;;
8708;SDS011;4391;48.678;9.280;2022-11-04T03:51:35;2.53;;;0.50;;
8708;SDS011;4391;48.678;9.280;2022-11-04T03:54:02;1.55;;;0.50;;
8708;SDS011;4391;48.678;9.280;2022-11-04T03:56:34;4.78;;;0.70;;
8708;SDS011;4391;48.678;9.280;2022-11-04T03:59:16;1.23;;;0.40;;
8708;SDS011;4391;48.678;9.280;2022-11-04T04:01:55;2.03;;;0.68;;
8708;SDS011;4391;48.678;9.280;2022-11-04T04:04:27;1.88;;;0.60;;
8708;SDS011;4391;48.678;9.280;2022-11-04T04:06:56;2.53;;;0.52;;
8708;SDS011;4391;48.678;9.280;2022-11-04T04:09:32;3.13;;;0.70;;
8708;SDS011;4391;48.678;9.280;2022-11-04T04:12:06;1.70;;;0.33;;
8708;SDS011;4391;48.678;9.280;2022-11-04T04:14:39;3.50;;;0.50;;
8708;SDS011;4391;48.678;9.280;2022-11-04T04:17:12;1.40;;;0.50;;
8708;SDS011;4391;48.678;9.280;2022-11-04T04:19:46;2.50;;;0.90;;
8708;SDS011;4391;48.678;9.280;2022-11-04T04:22:17;2.20;;;0.70;;
8708;SDS011;4391;48.678;9.280;2022-11-04T04:24:47;4.00;;;0.70;;
8708;SDS011;4391;48.678;9.280;2022-11-04T04:27:34;2.35;;;0.70;;
8708;SDS011;4391;48.678;9.280;2022-11-04T04:30:03;2.60;;;0.80;;
8708;SDS011;4391;48.678;9.280;2022-11-04T04:32:33;2.80;;;0.60;;
8708;SDS011;4391;48.678;9.280;2022-11-04T04:35:04;2.17;;;0.70;;
8708;SDS011;4391;48.678;9.280;2022-11-04T04:37:49;4.30;;;0.67;;
8708;SDS011;4391;48.678;9.280;2022-11-04T04:40:19;1.45;;;0.50;;
8708;SDS011;4391;48.678;9.280;2022-11-04T04:43:12;2.92;;;0.70;;
8708;SDS011;4391;48.678;9.280;2022-11-04T04:45:58;2.28;;;0.60;;
8708;SDS011;4391;48.678;9.280;2022-11-04T04:48:25;2.15;;;0.70;;
8708;SDS011;4391;48.678;9.280;2022-11-04T04:50:53;1.63;;;0.53;;
8708;SDS011;4391;48.678;9.280;2022-11-04T04:53:26;2.33;;;0.70;;
8708;SDS011;4391;48.678;9.280;2022-11-04T04:55:52;1.83;;;0.60;;
8708;SDS011;4391;48.678;9.280;2022-11-04T04:58:19;2.28;;;0.70;;
8708;SDS011;4391;48.678;9.280;2022-11-04T05:00:46;3.25;;;0.82;;
8708;SDS011;4391;48.678;9.280;2022-11-04T05:03:13;2.27;;;0.60;;
8708;SDS011;4391;48.678;9.280;2022-11-04T05:05:39;3.55;;;0.80;;
8708;SDS011;4391;48.678;9.280;2022-11-04T05:08:07;1.52;;;0.50;;
8708;SDS011;4391;48.678;9.280;2022-11-04T05:10:34;1.88;;;0.60;;
8708;SDS011;4391;48.678;9.280;2022-11-04T05:13:01;2.03;;;0.70;;
8708;SDS011;4391;48.678;9.280;2022-11-04T05:15:45;2.27;;;0.50;;
8708;SDS011;4391;48.678;9.280;2022-11-04T05:18:12;2.30;;;0.50;;
8708;SDS011;4391;48.678;9.280;2022-11-04T05:20:39;2.83;;;0.60;;
8708;SDS011;4391;48.678;9.280;2022-11-04T05:23:07;1.95;;;0.50;;
8708;SDS011;4391;48.678;9.280;2022-11-04T05:25:36;3.22;;;0.88;;
8708;SDS011;4391;48.678;9.280;2022-11-04T05:28:03;2.63;;;0.50;;
8708;SDS011;4391;48.678;9.280;2022-11-04T05:30:31;3.88;;;0.80;;
8708;SDS011;4391;48.678;9.280;2022-11-04T05:32:58;1.77;;;0.65;;
8708;SDS011;4391;48.678;9.280;2022-11-04T05:35:25;1.77;;;0.65;;
8708;SDS011;4391;48.678;9.280;2022-11-04T05:37:52;1.13;;;0.50;;
8708;SDS011;4391;48.678;9.280;2022-11-04T05:40:21;2.13;;;0.57;;
8708;SDS011;4391;48.678;9.280;2022-11-04T05:42:48;1.88;;;0.60;;
8708;SDS011;4391;48.678;9.280;2022-11-04T05:45:15;2.58;;;0.77;;
8708;SDS011;4391;48.678;9.280;2022-11-04T05:47:42;1.35;;;0.40;;
8708;SDS011;4391;48.678;9.280;2022-11-04T05:50:09;3.63;;;0.70;;
8708;SDS011;4391;48.678;9.280;2022-11-04T05:52:35;4.13;;;0.60;;
8708;SDS011;4391;48.678;9.280;2022-11-04T05:55:02;2.03;;;0.70;;
8708;SDS011;4391;48.678;9.280;2022-11-04T05:57:30;2.60;;;0.77;;
8708;SDS011;4391;48.678;9.280;2022-11-04T05:59:59;2.33;;;0.60;;
8708;SDS011;4391;48.678;9.280;2022-11-04T06:02:26;2.28;;;0.90;;
8708;SDS011;4391;48.678;9.280;2022-11-04T06:04:52;2.70;;;0.50;;
8708;SDS011;4391;48.678;9.280;2022-11-04T06:07:19;2.90;;;0.80;;
8708;SDS011;4391;48.678;9.280;2022-11-04T06:09:46;4.60;;;0.80;;
8708;SDS011;4391;48.678;9.280;2022-11-04T06:12:13;1.83;;;0.63;;
8708;SDS011;4391;48.678;9.280;2022-11-04T06:14:42;6.13;;;0.80;;
8708;SDS011;4391;48.678;9.280;2022-11-04T06:17:10;1.60;;;0.60;;
8708;SDS011;4391;48.678;9.280;2022-11-04T06:19:39;1.40;;;0.50;;
8708;SDS011;4391;48.678;9.280;2022-11-04T06:22:05;3.83;;;1.02;;
8708;SDS011;4391;48.678;9.280;2022-11-04T06:24:32;2.38;;;0.95;;
8708;SDS011;4391;48.678;9.280;2022-11-04T06:26:59;2.92;;;0.90;;
8708;SDS011;4391;48.678;9.280;2022-11-04T06:29:26;2.60;;;0.90;;
8708;SDS011;4391;48.678;9.280;2022-11-04T06:31:54;2.47;;;0.90;;
8708;SDS011;4391;48.678;9.280;2022-11-04T06:34:21;3.55;;;0.80;;
8708;SDS011;4391;48.678;9.280;2022-11-04T06:36:48;3.50;;;0.95;;
8708;SDS011;4391;48.678;9.280;2022-11-04T06:39:15;3.35;;;1.10;;
8708;SDS011;4391;48.678;9.280;2022-11-04T06:41:42;4.77;;;1.07;;
8708;SDS011;4391;48.678;9.280;2022-11-04T06:44:08;4.45;;;1.20;;
8708;SDS011;4391;48.678;9.280;2022-11-04T06:46:36;4.82;;;1.30;;
8708;SDS011;4391;48.678;9.280;2022-11-04T06:49:06;6.20;;;1.20;;
8708;SDS011;4391;48.678;9.280;2022-11-04T06:51:36;3.75;;;1.20;;
8708;SDS011;4391;48.678;9.280;2022-11-04T06:54:03;2.93;;;1.10;;
8708;SDS011;4391;48.678;9.280;2022-11-04T06:56:30;3.33;;;1.17;;
8708;SDS011;4391;48.678;9.280;2022-11-04T06:58:57;4.82;;;1.10;;
8708;SDS011;4391;48.678;9.280;2022-11-04T07:01:24;3.53;;;0.80;;
8708;SDS011;4391;48.678;9.280;2022-11-04T07:03:55;3.75;;;0.95;;
8708;SDS011;4391;48.678;9.280;2022-11-04T07:06:24;3.13;;;0.70;;
8708;SDS011;4391;48.678;9.280;2022-11-04T07:08:54;4.28;;;1.10;;
8708;SDS011;4391;48.678;9.280;2022-11-04T07:11:23;2.65;;;0.85;;
8708;SDS011;4391;48.678;9.280;2022-11-04T07:13:51;2.45;;;0.60;;
8708;SDS011;4391;48.678;9.280;2022-11-04T07:16:18;2.15;;;0.90;;
8708;SDS011;4391;48.678;9.280;2022-11-04T07:18:45;2.80;;;0.87;;
8708;SDS011;4391;48.678;9.280;2022-11-04T07:21:13;3.22;;;1.05;;
8708;SDS011;4391;48.678;9.280;2022-11-04T07:23:41;2.40;;;0.90;;
8708;SDS011;4391;48.678;9.280;2022-11-04T07:26:08;3.97;;;1.00;;
8708;SDS011;4391;48.678;9.280;2022-11-04T07:28:36;4.70;;;1.48;;
8708;SDS011;4391;48.678;9.280;2022-11-04T07:31:04;4.23;;;1.40;;
8708;SDS011;4391;48.678;9.280;2022-11-04T07:33:32;5.05;;;1.42;;
8708;SDS011;4391;48.678;9.280;2022-11-04T07:36:02;3.92;;;1.23;;
8708;SDS011;4391;48.678;9.280;2022-11-04T07:38:30;3.85;;;1.10;;
8708;SDS011;4391;48.678;9.280;2022-11-04T07:40:58;4.45;;;1.33;;
8708;SDS011;4391;48.678;9.280;2022-11-04T07:43:26;4.07;;;1.30;;
8708;SDS011;4391;48.678;9.280;2022-11-04T07:45:59;6.45;;;2.00;;
8708;SDS011;4391;48.678;9.280;2022-11-04T07:48:27;5.82;;;2.08;;
8708;SDS011;4391;48.678;9.280;2022-11-04T07:50:55;4.72;;;1.77;;
8708;SDS011;4391;48.678;9.280;2022-11-04T07:53:22;3.35;;;1.45;;
8708;SDS011;4391;48.678;9.280;2022-11-04T07:55:49;4.70;;;1.70;;
8708;SDS011;4391;48.678;9.280;2022-11-04T07:58:17;4.82;;;1.90;;
8708;SDS011;4391;48.678;9.280;2022-11-04T08:00:44;5.22;;;1.92;;
8708;SDS011;4391;48.678;9.280;2022-11-04T08:03:12;4.30;;;1.80;;
8708;SDS011;4391;48.678;9.280;2022-11-04T08:05:38;5.50;;;2.10;;
8708;SDS011;4391;48.678;9.280;2022-11-04T08:08:05;5.20;;;2.03;;
8708;SDS011;4391;48.678;9.280;2022-11-04T08:10:32;5.90;;;2.22;;
8708;SDS011;4391;48.678;9.280;2022-11-04T08:12:59;5.10;;;1.95;;
8708;SDS011;4391;48.678;9.280;2022-11-04T08:15:27;5.35;;;2.05;;
8708;SDS011;4391;48.678;9.280;2022-11-04T08:17:54;8.30;;;2.88;;
8708;SDS011;4391;48.678;9.280;2022-11-04T08:20:21;5.67;;;2.90;;
8708;SDS011;4391;48.678;9.280;2022-11-04T08:22:48;5.65;;;1.90;;
8708;SDS011;4391;48.678;9.280;2022-11-04T08:25:15;5.53;;;1.45;;
8708;SDS011;4391;48.678;9.280;2022-11-04T08:27:42;4.95;;;1.42;;
8708;SDS011;4391;48.678;9.280;2022-11-04T08:30:10;4.93;;;1.40;;
8708;SDS011;4391;48.678;9.280;2022-11-04T08:32:38;6.90;;;1.57;;
8708;SDS011;4391;48.678;9.280;2022-11-04T08:35:05;5.85;;;1.25;;
8708;SDS011;4391;48.678;9.280;2022-11-04T08:37:34;5.22;;;1.60;;
8708;SDS011;4391;48.678;9.280;2022-11-04T08:40:03;5.25;;;1.40;;
8708;SDS011;4391;48.678;9.280;2022-11-04T08:42:30;5.85;;;1.80;;
8708;SDS011;4391;48.678;9.280;2022-11-04T08:44:57;3.47;;;1.40;;
8708;SDS011;4391;48.678;9.280;2022-11-04T08:47:24;3.30;;;1.30;;
8708;SDS011;4391;48.678;9.280;2022-11-04T08:49:52;3.60;;;1.40;;
8708;SDS011;4391;48.678;9.280;2022-11-04T08:52:19;4.00;;;1.27;;
8708;SDS011;4391;48.678;9.280;2022-11-04T08:54:46;6.47;;;1.48;;
8708;SDS011;4391;48.678;9.280;2022-11-04T08:57:12;4.40;;;1.43;;
8708;SDS011;4391;48.678;9.280;2022-11-04T08:59:39;4.82;;;1.60;;
8708;SDS011;4391;48.678;9.280;2022-11-04T09:02:08;4.50;;;1.35;;
8708;SDS011;4391;48.678;9.280;2022-11-04T09:04:38;3.63;;;1.10;;
8708;SDS011;4391;48.678;9.280;2022-11-04T09:07:06;3.28;;;1.23;;
8708;SDS011;4391;48.678;9.280;2022-11-04T09:09:33;8.07;;;1.40;;
8708;SDS011;4391;48.678;9.280;2022-11-04T09:12:00;5.60;;;1.10;;
8708;SDS011;4391;48.678;9.280;2022-11-04T09:14:27;2.85;;;0.80;;
8708;SDS011;4391;48.678;9.280;2022-11-04T09:16:54;3.30;;;1.10;;
8708;SDS011;4391;48.678;9.280;2022-11-04T09:19:21;4.60;;;1.30;;
8708;SDS011;4391;48.678;9.280;2022-11-04T09:21:48;4.97;;;1.17;;
8708;SDS011;4391;48.678;9.280;2022-11-04T09:24:16;3.15;;;1.20;;
8708;SDS011;4391;48.678;9.280;2022-11-04T09:26:43;4.07;;;1.15;;
8708;SDS011;4391;48.678;9.280;2022-11-04T09:29:10;3.58;;;0.98;;
8708;SDS011;4391;48.678;9.280;2022-11-04T09:31:37;3.60;;;1.00;;
8708;SDS011;4391;48.678;9.280;2022-11-04T09:34:04;2.97;;;1.03;;
8708;SDS011;4391;48.678;9.280;2022-11-04T09:36:30;5.00;;;0.93;;
8708;SDS011;4391;48.678;9.280;2022-11-04T09:38:57;3.10;;;0.90;;
8708;SDS011;4391;48.678;9.280;2022-11-04T09:41:32;3.03;;;1.10;;
8708;SDS011;4391;48.678;9.280;2022-11-04T09:44:09;3.30;;;0.95;;
8708;SDS011;4391;48.678;9.280;2022-11-04T09:46:42;4.73;;;1.20;;
8708;SDS011;4391;48.678;9.280;2022-11-04T09:49:13;3.30;;;0.90;;
8708;SDS011;4391;48.678;9.280;2022-11-04T09:51:42;3.33;;;1.02;;
8708;SDS011;4391;48.678;9.280;2022-11-04T09:54:12;3.55;;;1.05;;
8708;SDS011;4391;48.678;9.280;2022-11-04T09:56:44;4.45;;;1.10;;
8708;SDS011;4391;48.678;9.280;2022-11-04T09:59:16;4.07;;;1.23;;
8708;SDS011;4391;48.678;9.280;2022-11-04T10:01:52;3.17;;;0.93;;
8708;SDS011;4391;48.678;9.280;2022-11-04T10:04:28;6.25;;;1.10;;
8708;SDS011;4391;48.678;9.280;2022-11-04T10:07:12;3.08;;;0.90;;
8708;SDS011;4391;48.678;9.280;2022-11-04T10:09:54;5.45;;;1.45;;
8708;SDS011;4391;48.678;9.280;2022-11-04T10:12:43;3.33;;;1.13;;
8708;SDS011;4391;48.678;9.280;2022-11-04T10:15:25;4.13;;;1.10;;
8708;SDS011;4391;48.678;9.280;2022-11-04T10:18:05;4.65;;;1.40;;
8708;SDS011;4391;48.678;9.280;2022-11-04T10:20:47;3.75;;;0.90;;
8708;SDS011;4391;48.678;9.280;2022-11-04T10:23:21;5.18;;;1.60;;
8708;SDS011;4391;48.678;9.280;2022-11-04T10:25:52;3.80;;;1.30;;
8708;SDS011;4391;48.678;9.280;2022-11-04T10:28:28;4.85;;;1.13;;
8708;SDS011;4391;48.678;9.280;2022-11-04T10:31:00;4.07;;;1.02;;
8708;SDS011;4391;48.678;9.280;2022-11-04T10:33:29;4.65;;;0.90;;
8708;SDS011;4391;48.678;9.280;2022-11-04T10:35:59;4.05;;;1.27;;
8708;SDS011;4391;48.678;9.280;2022-11-04T10:38:31;4.17;;;1.10;;
8708;SDS011;4391;48.678;9.280;2022-11-04T10:41:01;2.70;;;1.00;;
8708;SDS011;4391;48.678;9.280;2022-11-04T10:43:38;5.30;;;1.25;;
8708;SDS011;4391;48.678;9.280;2022-11-04T10:46:13;4.88;;;1.10;;
8708;SDS011;4391;48.678;9.280;2022-11-04T10:48:48;7.05;;;1.33;;
8708;SDS011;4391;48.678;9.280;2022-11-04T10:51:19;5.63;;;1.17;;
8708;SDS011;4391;48.678;9.280;2022-11-04T10:53:49;3.17;;;0.90;;
8708;SDS011;4391;48.678;9.280;2022-11-04T10:56:20;5.43;;;1.20;;
8708;SDS011;4391;48.678;9.280;2022-11-04T10:58:58;3.70;;;1.05;;
8708;SDS011;4391;48.678;9.280;2022-11-04T11:01:34;3.38;;;1.10;;
8708;SDS011;4391;48.678;9.280;2022-11-04T11:04:01;3.93;;;1.40;;
8708;SDS011;4391;48.678;9.280;2022-11-04T11:06:33;4.45;;;0.75;;
8708;SDS011;4391;48.678;9.280;2022-11-04T11:09:10;4.60;;;1.20;;
8708;SDS011;4391;48.678;9.280;2022-11-04T11:11:41;3.15;;;0.75;;
8708;SDS011;4391;48.678;9.280;2022-11-04T11:14:19;3.40;;;0.88;;
8708;SDS011;4391;48.678;9.280;2022-11-04T11:17:15;2.80;;;0.70;;
8708;SDS011;4391;48.678;9.280;2022-11-04T11:19:49;7.07;;;0.80;;
8708;SDS011;4391;48.678;9.280;2022-11-04T11:22:27;4.82;;;1.25;;
8708;SDS011;4391;48.678;9.280;2022-11-04T11:27:40;4.80;;;1.08;;
8708;SDS011;4391;48.678;9.280;2022-11-04T11:30:21;1.87;;;0.53;;
8708;SDS011;4391;48.678;9.280;2022-11-04T11:32:51;6.25;;;0.90;;
8708;SDS011;4391;48.678;9.280;2022-11-04T11:35:21;7.50;;;0.88;;
8708;SDS011;4391;48.678;9.280;2022-11-04T11:37:50;4.93;;;0.98;;
8708;SDS011;4391;48.678;9.280;2022-11-04T11:40:22;3.75;;;0.90;;
8708;SDS011;4391;48.678;9.280;2022-11-04T11:42:53;5.70;;;0.70;;
8708;SDS011;4391;48.678;9.280;2022-11-04T11:45:22;5.85;;;0.90;;
8708;SDS011;4391;48.678;9.280;2022-11-04T11:47:50;8.80;;;0.98;;
8708;SDS011;4391;48.678;9.280;2022-11-04T11:50:19;6.35;;;0.70;;
8708;SDS011;4391;48.678;9.280;2022-11-04T11:52:54;7.32;;;0.80;;
8708;SDS011;4391;48.678;9.280;2022-11-04T11:55:38;4.33;;;0.70;;
8708;SDS011;4391;48.678;9.280;2022-11-04T11:58:13;6.25;;;0.70;;
8708;SDS011;4391;48.678;9.280;2022-11-04T12:00:49;5.53;;;1.02;;
8708;SDS011;4391;48.678;9.280;2022-11-04T12:03:21;4.72;;;0.63;;
8708;SDS011;4391;48.678;9.280;2022-11-04T12:05:56;3.10;;;0.88;;
8708;SDS011;4391;48.678;9.280;2022-11-04T12:08:43;4.60;;;0.60;;
8708;SDS011;4391;48.678;9.280;2022-11-04T12:11:22;6.20;;;0.90;;
8708;SDS011;4391;48.678;9.280;2022-11-04T12:13:55;4.43;;;1.10;;
8708;SDS011;4391;48.678;9.280;2022-11-04T12:16:30;5.63;;;0.80;;
8708;SDS011;4391;48.678;9.280;2022-11-04T12:21:56;5.67;;;0.80;;
8708;SDS011;4391;48.678;9.280;2022-11-04T12:24:31;3.42;;;0.70;;
8708;SDS011;4391;48.678;9.280;2022-11-04T12:27:05;4.15;;;0.90;;
8708;SDS011;4391;48.678;9.280;2022-11-04T12:29:46;5.40;;;0.90;;
8708;SDS011;4391;48.678;9.280;2022-11-04T12:32:31;8.50;;;2.22;;
8708;SDS011;4391;48.678;9.280;2022-11-04T12:35:22;4.30;;;0.77;;
8708;SDS011;4391;48.678;9.280;2022-11-04T12:38:03;4.13;;;1.08;;
8708;SDS011;4391;48.678;9.280;2022-11-04T12:40:44;5.90;;;1.55;;
8708;SDS011;4391;48.678;9.280;2022-11-04T12:43:18;6.53;;;0.93;;
8708;SDS011;4391;48.678;9.280;2022-11-04T12:45:57;8.35;;;1.40;;
8708;SDS011;4391;48.678;9.280;2022-11-04T12:48:39;8.30;;;1.33;;
8708;SDS011;4391;48.678;9.280;2022-11-04T12:51:26;2.53;;;0.70;;
8708;SDS011;4391;48.678;9.280;2022-11-04T12:54:03;5.18;;;0.80;;
8708;SDS011;4391;48.678;9.280;2022-11-04T12:56:40;4.03;;;0.77;;
8708;SDS011;4391;48.678;9.280;2022-11-04T12:59:13;5.10;;;0.93;;
8708;SDS011;4391;48.678;9.280;2022-11-04T13:01:58;7.07;;;0.87;;
8708;SDS011;4391;48.678;9.280;2022-11-04T13:04:35;5.57;;;1.02;;
8708;SDS011;4391;48.678;9.280;2022-11-04T13:07:07;5.65;;;1.10;;
8708;SDS011;4391;48.678;9.280;2022-11-04T13:09:40;4.38;;;0.98;;
8708;SDS011;4391;48.678;9.280;2022-11-04T13:12:10;2.72;;;0.63;;
8708;SDS011;4391;48.678;9.280;2022-11-04T13:17:10;4.60;;;1.13;;
8708;SDS011;4391;48.678;9.280;2022-11-04T13:19:44;5.00;;;0.90;;
8708;SDS011;4391;48.678;9.280;2022-11-04T13:22:14;2.58;;;0.60;;
8708;SDS011;4391;48.678;9.280;2022-11-04T13:24:45;5.90;;;1.00;;
8708;SDS011;4391;48.678;9.280;2022-11-04T13:27:18;5.50;;;0.90;;
8708;SDS011;4391;48.678;9.280;2022-11-04T13:29:47;2.70;;;0.60;;
8708;SDS011;4391;48.678;9.280;2022-11-04T13:32:16;4.85;;;0.80;;
8708;SDS011;4391;48.678;9.280;2022-11-04T13:34:53;2.85;;;0.60;;
8708;SDS011;4391;48.678;9.280;2022-11-04T13:37:27;4.13;;;0.90;;
8708;SDS011;4391;48.678;9.280;2022-11-04T13:40:00;4.23;;;0.60;;
8708;SDS011;4391;48.678;9.280;2022-11-04T13:45:45;4.72;;;0.90;;
8708;SDS011;4391;48.678;9.280;2022-11-04T13:48:15;3.53;;;0.75;;
8708;SDS011;4391;48.678;9.280;2022-11-04T13:50:46;2.58;;;0.60;;
8708;SDS011;4391;48.678;9.280;2022-11-04T13:53:21;3.33;;;0.70;;
8708;SDS011;4391;48.678;9.280;2022-11-04T13:56:07;3.77;;;0.70;;
8708;SDS011;4391;48.678;9.280;2022-11-04T13:58:34;2.95;;;0.65;;
8708;SDS011;4391;48.678;9.280;2022-11-04T14:01:08;3.63;;;0.80;;
8708;SDS011;4391;48.678;9.280;2022-11-04T14:03:38;3.80;;;0.90;;
8708;SDS011;4391;48.678;9.280;2022-11-04T14:06:18;6.05;;;1.00;;
8708;SDS011;4391;48.678;9.280;2022-11-04T14:09:23;3.93;;;0.93;;
8708;SDS011;4391;48.678;9.280;2022-11-04T14:15:12;5.38;;;0.90;;
8708;SDS011;4391;48.678;9.280;2022-11-04T14:18:00;4.30;;;0.77;;
8708;SDS011;4391;48.678;9.280;2022-11-04T14:20:32;7.20;;;1.08;;
8708;SDS011;4391;48.678;9.280;2022-11-04T14:23:04;3.90;;;0.70;;
8708;SDS011;4391;48.678;9.280;2022-11-04T14:25:33;3.88;;;1.00;;
8708;SDS011;4391;48.678;9.280;2022-11-04T14:28:16;4.97;;;0.93;;
8708;SDS011;4391;48.678;9.280;2022-11-04T14:30:51;4.10;;;1.00;;
8708;SDS011;4391;48.678;9.280;2022-11-04T14:33:28;4.38;;;0.90;;
8708;SDS011;4391;48.678;9.280;2022-11-04T14:39:01;5.10;;;0.93;;
8708;SDS011;4391;48.678;9.280;2022-11-04T14:44:24;3.75;;;1.15;;
8708;SDS011;4391;48.678;9.280;2022-11-04T14:46:57;4.68;;;0.98;;
8708;SDS011;4391;48.678;9.280;2022-11-04T14:49:31;5.43;;;1.00;;
8708;SDS011;4391;48.678;9.280;2022-11-04T14:52:04;3.22;;;1.10;;
8708;SDS011;4391;48.678;9.280;2022-11-04T14:54:33;3.65;;;1.00;;
8708;SDS011;4391;48.678;9.280;2022-11-04T14:59:47;6.22;;;1.33;;
8708;SDS011;4391;48.678;9.280;2022-11-04T15:02:17;5.23;;;1.30;;
8708;SDS011;4391;48.678;9.280;2022-11-04T15:04:48;6.13;;;1.15;;
8708;SDS011;4391;48.678;9.280;2022-11-04T15:07:30;4.95;;;1.67;;
8708;SDS011;4391;48.678;9.280;2022-11-04T15:10:02;5.80;;;2.08;;
8708;SDS011;4391;48.678;9.280;2022-11-04T15:12:43;2.30;;;0.80;;
8708;SDS011;4391;48.678;9.280;2022-11-04T15:15:24;3.53;;;1.07;;
8708;SDS011;4391;48.678;9.280;2022-11-04T15:17:55;5.03;;;0.82;;
8708;SDS011;4391;48.678;9.280;2022-11-04T15:20:25;6.22;;;1.40;;
8708;SDS011;4391;48.678;9.280;2022-11-04T15:22:55;3.08;;;0.98;;
8708;SDS011;4391;48.678;9.280;2022-11-04T15:25:25;6.72;;;1.30;;
8708;SDS011;4391;48.678;9.280;2022-11-04T15:27:52;6.07;;;1.27;;
8708;SDS011;4391;48.678;9.280;2022-11-04T15:30:21;2.95;;;1.05;;
8708;SDS011;4391;48.678;9.280;2022-11-04T15:32:53;4.18;;;1.00;;
8708;SDS011;4391;48.678;9.280;2022-11-04T15:35:21;4.38;;;0.80;;
8708;SDS011;4391;48.678;9.280;2022-11-04T15:37:49;4.68;;;0.80;;
8708;SDS011;4391;48.678;9.280;2022-11-04T15:40:18;4.70;;;0.90;;
8708;SDS011;4391;48.678;9.280;2022-11-04T15:42:47;3.63;;;0.98;;
8708;SDS011;4391;48.678;9.280;2022-11-04T15:50:51;3.58;;;1.10;;
8708;SDS011;4391;48.678;9.280;2022-11-04T15:53:22;4.67;;;1.50;;
8708;SDS011;4391;48.678;9.280;2022-11-04T15:55:49;5.82;;;1.50;;
8708;SDS011;4391;48.678;9.280;2022-11-04T15:58:18;6.10;;;1.50;;
8708;SDS011;4391;48.678;9.280;2022-11-04T16:00:50;4.82;;;1.73;;
8708;SDS011;4391;48.678;9.280;2022-11-04T16:03:18;5.82;;;1.40;;
8708;SDS011;4391;48.678;9.280;2022-11-04T16:05:58;4.73;;;1.50;;
8708;SDS011;4391;48.678;9.280;2022-11-04T16:08:28;4.53;;;1.23;;
8708;SDS011;4391;48.678;9.280;2022-11-04T16:11:12;7.45;;;1.58;;